createdAt,value
2023-02-27T18:06:09.703Z,61.90
2023-02-27T18:08:36.918Z,62.26
2023-02-27T18:11:04.275Z,62.83
2023-02-27T18:13:31.403Z,63.29
2023-02-27T18:15:58.627Z,64.07
2023-02-27T18:18:25.656Z,63.87
2023-02-27T18:21:04.399Z,63.76
2023-02-27T18:23:31.976Z,64.32
2023-02-27T18:25:59.859Z,64.63
2023-02-27T18:28:27.482Z,64.62
2023-02-27T18:30:54.564Z,64.28
2023-02-27T18:33:23.197Z,64.15
2023-02-27T18:35:50.652Z,64.26
2023-02-27T18:38:17.708Z,64.19
2023-02-27T18:40:44.795Z,63.94
2023-02-27T18:43:12.379Z,64.18
2023-02-27T18:45:39.968Z,64.04
2023-02-27T18:48:07.360Z,63.88
2023-02-27T18:50:34.664Z,63.92
2023-02-27T18:53:01.754Z,63.67
2023-02-27T18:55:28.761Z,63.51
2023-02-27T18:57:55.757Z,63.48
2023-02-27T19:00:24.362Z,63.02
2023-02-27T19:02:51.534Z,63.42
2023-02-27T19:05:19.020Z,63.54
2023-02-27T19:07:46.270Z,63.13
2023-02-27T19:10:15.202Z,63.13
2023-02-27T19:12:42.887Z,62.70
2023-02-27T19:15:11.151Z,62.69
2023-02-27T19:17:38.533Z,63.05
2023-02-27T19:20:07.001Z,63.33
2023-02-27T19:22:34.745Z,62.91
2023-02-27T19:25:01.868Z,63.12
2023-02-27T19:27:30.162Z,63.63
2023-02-27T19:29:57.184Z,62.98
2023-02-27T19:32:24.322Z,63.51
2023-02-27T19:34:51.455Z,62.96
2023-02-27T19:37:18.498Z,62.95
2023-02-27T19:39:46.592Z,62.72
2023-02-27T19:42:13.649Z,63.03
2023-02-27T19:44:41.351Z,62.83
2023-02-27T19:47:08.417Z,63.12
2023-02-27T19:49:35.510Z,63.49
2023-02-27T19:52:03.110Z,63.14
2023-02-27T19:54:30.734Z,63.23
2023-02-27T19:56:57.728Z,63.20
2023-02-27T19:59:25.019Z,63.52
2023-02-27T20:01:52.599Z,63.53
2023-02-27T20:04:20.158Z,63.26
2023-02-27T20:06:49.670Z,63.14
2023-02-27T20:09:20.486Z,63.05
2023-02-27T20:11:51.565Z,63.29
2023-02-27T20:14:18.781Z,63.25
2023-02-27T20:16:46.367Z,63.39
2023-02-27T20:19:18.290Z,63.85
2023-02-27T20:21:46.490Z,63.69
2023-02-27T20:24:14.865Z,63.38
2023-02-27T20:26:53.608Z,63.14
2023-02-27T20:29:23.915Z,63.43
2023-02-27T20:31:52.841Z,63.26
2023-02-27T20:34:22.777Z,63.49
2023-02-27T20:36:50.755Z,63.31
2023-02-27T20:39:19.340Z,62.71
2023-02-27T20:41:47.305Z,62.92
2023-02-27T20:44:14.487Z,62.88
2023-02-27T20:46:43.825Z,62.69
2023-02-27T20:49:14.599Z,62.88
2023-02-27T20:51:41.957Z,63.08
2023-02-27T20:54:13.663Z,63.35
2023-02-27T20:56:43.231Z,63.11
2023-02-27T20:59:14.470Z,63.08
2023-02-27T21:01:42.708Z,63.21
2023-02-27T21:04:09.936Z,62.90
2023-02-27T21:06:37.052Z,63.17
2023-02-27T21:09:06.404Z,63.04
2023-02-27T21:11:33.765Z,63.57
2023-02-27T21:14:09.317Z,63.19
2023-02-27T21:16:37.208Z,63.05
2023-02-27T21:19:04.489Z,63.31
2023-02-27T21:21:33.912Z,63.44
2023-02-27T21:24:01.232Z,63.41
2023-02-27T21:26:35.619Z,63.45
2023-02-27T21:29:06.269Z,63.50
2023-02-27T21:31:34.670Z,63.62
2023-02-27T21:34:03.641Z,63.73
2023-02-27T21:36:34.151Z,64.12
2023-02-27T21:39:14.781Z,63.93
2023-02-27T21:41:42.757Z,63.96
2023-02-27T21:44:12.959Z,64.04
2023-02-27T21:46:40.149Z,63.88
2023-02-27T21:49:07.165Z,64.00
2023-02-27T21:51:40.407Z,63.57
2023-02-27T21:54:10.788Z,63.59
2023-02-27T21:56:38.664Z,63.71
2023-02-27T21:59:06.371Z,63.91
2023-02-27T22:01:33.902Z,64.25
2023-02-27T22:04:02.113Z,64.21
2023-02-27T22:06:32.364Z,64.05
2023-02-27T22:09:01.637Z,64.17
2023-02-27T22:11:30.082Z,63.98
2023-02-27T22:13:57.443Z,64.36
2023-02-27T22:16:24.898Z,64.60
2023-02-27T22:18:52.016Z,64.64
2023-02-27T22:21:22.847Z,64.58
2023-02-27T22:23:50.455Z,64.31
2023-02-27T22:26:20.657Z,64.35
2023-02-27T22:28:47.829Z,64.95
2023-02-27T22:31:33.714Z,64.61
2023-02-27T22:34:21.198Z,64.46
2023-02-27T22:36:52.452Z,64.56
2023-02-27T22:39:20.282Z,64.58
2023-02-27T22:41:47.326Z,64.66
2023-02-27T22:44:16.250Z,64.81
2023-02-27T22:46:48.386Z,64.53
2023-02-27T22:49:21.364Z,64.57
2023-02-27T22:51:50.987Z,64.56
2023-02-27T22:54:20.765Z,65.02
2023-02-27T22:56:50.488Z,64.98
2023-02-27T22:59:17.610Z,65.10
2023-02-27T23:01:44.671Z,65.02
2023-02-27T23:04:11.973Z,64.65
2023-02-27T23:06:40.728Z,64.81
2023-02-27T23:09:11.030Z,65.02
2023-02-27T23:11:38.172Z,64.79
2023-02-27T23:14:05.468Z,65.24
2023-02-27T23:16:32.702Z,65.22
2023-02-27T23:19:00.157Z,65.32
2023-02-27T23:21:34.402Z,65.28
2023-02-27T23:24:06.745Z,65.22
2023-02-27T23:26:42.725Z,64.83
2023-02-27T23:29:10.365Z,65.34
2023-02-27T23:31:38.177Z,65.54
2023-02-27T23:34:06.143Z,65.29
2023-02-27T23:36:38.028Z,65.26
2023-02-27T23:39:05.948Z,65.45
2023-02-27T23:41:33.908Z,65.33
2023-02-27T23:44:19.713Z,65.22
2023-02-27T23:46:46.706Z,65.33
2023-02-27T23:49:13.734Z,65.46
2023-02-27T23:51:40.743Z,65.51
2023-02-27T23:54:07.762Z,65.72
2023-02-27T23:56:34.733Z,66.45
2023-02-27T23:59:05.158Z,65.73
